KJAN/JAN METAR and TAF weather

Enter ICAO airport designator
Station Type Date Time Source
KJAN METAR 2019/12/08 03:54 UTC NOAA

KJAN 080354Z 35004KT 4SM BR OVC034 09/07 A3022 RMK AO2 SLP234 T00890067 $


Station Type Date Time Source
KJAN Decoded METAR 2019/12/08 03:54 UTC NOAA

Jackson, Jackson International Airport, MS, United States (KJAN) 32-19-11N 090-04-39W 89M
Dec 07, 2019 - 10:54 PM EST / 2019.12.08 0354 UTC
Wind: from the N (350 degrees) at 5 MPH (4 KT):0
Visibility: 4 mile(s):0
Sky conditions: overcast
Weather: mist
Temperature: 48.0 F (8.9 C)
Dew Point: 44.1 F (6.7 C)
Relative Humidity: 86%
Pressure (altimeter): 30.22 in. Hg (1023 hPa)
ob: KJAN 080354Z 35004KT 4SM BR OVC034 09/07 A3022 RMK AO2 SLP234 T00890067
cycle: 4

Station Type Date Time Source
KJAN TAF 2019/12/07 18:48 UTC NOAA

TAF KJAN 071740Z 0718/0818 01007KT P6SM OVC010
FM072000 02006KT P6SM BKN015 OVC025
FM072300 02003KT P6SM SCT025
FM080100 01003KT P6SM OVC025
FM080700 00000KT P6SM OVC015

Example: see airport list